Terminal Aerodrome Forecast
Issued by NWS

Home | Current Version | Previous Version | Graphics & Text | Print | Product List | Glossary On
Versions: 1 2 3 4 5 6 7 8 9 10 11 12 13 14 15
000
FTUS43 KOAX 291400 AAA
TAFCDR
TAF AMD
KCDR 291435Z 2915/3012 04008KT 4SM -RA VCTS BKN005 OVC025CB
      TEMPO 2915/2917 2SM TSRA OVC005CB
     FM291700 07009KT P6SM VCSH SCT015 BKN025
     FM292000 11009KT P6SM VCTS SCT025 BKN040CB
     FM300100 13020G30KT 3SM TSRA BKN015 OVC030CB=

USA.gov is the U.S. government's official web portal to all federal, state and local government web resources and services.